Chatsworth, NJ (08019)

7:36 AM EDT on April 25, 2015 (GMT -0400)
Pine Barrens Weather In | | Change Station
CLOSE
Current Station
Personal Weather Station
Location: Warren Grove, NJ
Elevation: 88 ft
Nearby Weather Stations
Active Advisory: Freeze Warning

Elev 88 ft 39.75 °N, 74.37 °W | Updated 1 minute ago

Clear
Clear
40.0 °F
Feels Like 40 °F
N
1.1
Wind Variable Wind from NNW
Gusts 1.1 mph

Today
High -- | Low -- °F
--% Chance of Precip.
Yesterday
High -- | Low -- °F
Precip. -- in
6:06 AM 7:45 PM
Waxing Crescent, 45% visible
Pressure 29.96 in
Visibility 10.0 miles
Clouds Clear
Windchill 40 °F
Dew Point 30 °F
Humidity 68%
Rainfall 0.00 in
Snow Depth Not available.
UV 1 out of 12
Pollen 9.70 out of 12
Air Quality Not available.
Flu Activity Local Activity
METAR KMJX 251115Z AUTO 30005KT 10SM CLR 02/M03 A2996 RMK AO1

More Conditions Fewer Conditions

Pressure 29.96 in
Visibility 10.0 miles
Clouds Clear
Windchill 40 °F
Dew Point 30 °F
Humidity 68%
Rainfall 0.00 in
Snow Depth Not available.
UV 1 out of 12
Pollen 9.70 out of 12
Air Quality Not available.
Flu Activity Local Activity
METAR KMJX 251115Z AUTO 30005KT 10SM CLR 02/M03 A2996 RMK AO1

More Conditions Fewer Conditions

10-Day Weather Forecast

Almanac

Astronomy

Apr. 25, 2015 Rise Set
Actual Time
Civil Twilight
Nautical Twilight
Astronomical Twilight
Moon
Length of Visible Light
Length of Day
Tomorrow will be .
, % of the Moon is Illuminated

Today's Extremes

State Highs State Lows

Community

WunderPhotos

Upload Photos

1,816,642 photos uploaded!

WunderBlogs® & News

Nearby

Air Quality

  Air Quality AQ Index Pollutant
Not available.

Snow Depth

Station Depth Elevation

Earthquake Activity

City Distance Mag. Time & Date
Minimum magnitude displayed is 2.5.

Coastal Water Temperatures

Place Temperature

Stations

Nearby Weather Stations

Station Location Temp. Windchill Dew Point Humidity Wind Precip. Elev Updated Type
                   
Freeze Warning
Statement as of 3:51 AM EDT on April 25, 2015

... Freeze warning remains in effect until 8 am EDT this morning...

* timing... freezing temperatures are occurring or have occurred
over much of the Countryside of eastern Pennsylvania and New
Jersey this morning. Temperatures were near freezing in
Cecil County of northeast Maryland.

* Low temperatures... middle 20s to lower 30s.

* Impacts... possible damage to early season plants that are
unprotected.

Precautionary/preparedness actions...

A freeze warning means sub-freezing temperatures are imminent or
highly likely. These conditions will kill crops and other
sensitive vegetation.